Time;durP1;ratioP1;P1;durP2;ratioP2;P2;SDS_P1;SDS_P2;PMS_P1;PMS_P2;Temp;Humidity;BMP_temperature;BMP_pressure;BME280_temperature;BME280_humidity;BME280_pressure;Samples;Min_cycle;Max_cycle;Signal;HPM_P1;HPM_P2
2021/12/25 00:00:42;;;;;;;;;;;6.40;99.90;;;;;;5068649;28;19913;-60
2021/12/25 00:03:07;;;;;;;;;;;6.40;99.90;;;;;;5067627;28;20047;-59
2021/12/25 00:05:33;;;;;;;;;;;6.20;99.90;;;;;;5068536;28;19915;-59
2021/12/25 00:07:58;;;;;;;;;;;6.10;99.90;;;;;;5070269;28;19919;-60
2021/12/25 00:10:24;;;;;;;;;;;6.00;99.90;;;;;;5065325;28;19915;-59
2021/12/25 00:12:53;;;;;;;;;;;5.90;99.90;;;;;;5069266;28;19939;-59
2021/12/25 00:15:18;;;;;;;;;;;5.80;99.90;;;;;;5069292;28;19916;-59
2021/12/25 00:17:44;;;;;;;;;;;5.90;99.90;;;;;;5066738;28;19920;-59
2021/12/25 00:20:09;;;;;;;;;;;5.90;99.90;;;;;;5067859;28;19927;-59
2021/12/25 00:22:35;;;;;;;;;;;6.10;99.90;;;;;;5068753;28;19916;-59
2021/12/25 00:25:00;;;;;;;;;;;6.10;99.90;;;;;;5068968;28;19920;-59
2021/12/25 00:30:44;;;;;;;;;;;5.80;99.90;;;;;;5070113;28;19920;-59
2021/12/25 00:35:06;;;;;;;;;;;5.60;99.90;;;;;;5070044;28;19912;-59
2021/12/25 00:37:31;;;;;;;;;;;5.70;99.90;;;;;;5069942;28;19950;-60
2021/12/25 00:39:57;;;;;;;;;;;5.50;99.90;;;;;;5067450;28;19966;-58
2021/12/25 00:42:22;;;;;;;;;;;5.50;99.90;;;;;;5069132;28;20034;-59
2021/12/25 00:44:48;;;;;;;;;;;5.40;99.90;;;;;;5068625;28;19952;-59
2021/12/25 00:47:14;;;;;;;;;;;5.70;99.90;;;;;;5068306;28;19916;-60
2021/12/25 00:49:40;;;;;;;;;;;5.40;99.90;;;;;;5068244;28;19952;-59
2021/12/25 00:52:05;;;;;;;;;;;5.20;99.90;;;;;;5070493;28;19920;-59
2021/12/25 00:54:31;;;;;;;;;;;5.20;99.90;;;;;;5067961;28;19916;-58
2021/12/25 00:56:56;;;;;;;;;;;5.20;99.90;;;;;;5069318;28;19912;-59
2021/12/25 00:59:22;;;;;;;;;;;5.40;99.90;;;;;;5067875;28;19920;-58
2021/12/25 01:01:47;;;;;;;;;;;5.40;99.90;;;;;;5068796;28;19916;-58
2021/12/25 01:04:13;;;;;;;;;;;5.40;99.90;;;;;;5067333;28;20390;-58
2021/12/25 01:06:39;;;;;;;;;;;5.50;99.90;;;;;;5069179;28;19928;-60
2021/12/25 01:09:05;;;;;;;;;;;5.60;99.90;;;;;;5069531;28;20264;-59
2021/12/25 01:11:31;;;;;;;;;;;5.60;99.90;;;;;;5070042;28;19919;-59
2021/12/25 01:14:08;;;;;;;;;;;5.60;99.90;;;;;;5072491;28;19916;-60
2021/12/25 01:27:35;;;;;;;;;;;5.40;99.90;;;;;;5071024;28;19998;-59
2021/12/25 01:32:57;;;;;;;;;;;5.50;99.90;;;;;;5069918;28;19916;-60
2021/12/25 01:40:53;;;;;;;;;;;5.30;99.90;;;;;;5071168;28;19927;-58
2021/12/25 01:48:47;;;;;;;;;;;5.10;99.90;;;;;;5071460;28;20136;-59
2021/12/25 01:51:13;;;;;;;;;;;5.10;99.90;;;;;;5070409;28;19912;-59
2021/12/25 01:53:38;;;;;;;;;;;5.20;99.90;;;;;;5072318;28;19970;-59
2021/12/25 01:56:04;;;;;;;;;;;4.90;99.90;;;;;;5067665;28;20322;-58
2021/12/25 01:58:30;;;;;;;;;;;4.90;99.90;;;;;;5070234;28;20011;-59
2021/12/25 02:00:57;;;;;;;;;;;4.90;99.90;;;;;;5071974;28;20415;-60
2021/12/25 02:03:24;;;;;;;;;;;4.70;99.90;;;;;;5069980;28;20011;-58
2021/12/25 02:05:50;;;;;;;;;;;4.70;99.90;;;;;;5073066;28;20106;-58
2021/12/25 02:08:16;;;;;;;;;;;4.70;99.90;;;;;;5071688;28;19916;-60
2021/12/25 02:10:42;;;;;;;;;;;4.60;99.90;;;;;;5068717;28;20049;-60
2021/12/25 02:13:09;;;;;;;;;;;4.40;99.90;;;;;;5072184;28;20011;-59
2021/12/25 02:15:35;;;;;;;;;;;4.40;99.90;;;;;;5070966;28;19956;-60
2021/12/25 02:20:39;;;;;;;;;;;4.30;99.90;;;;;;5070878;28;19916;-60
2021/12/25 02:23:16;;;;;;;;;;;4.40;99.90;;;;;;5070100;28;20344;-59
2021/12/25 02:25:43;;;;;;;;;;;4.20;99.90;;;;;;5071021;28;19924;-59
2021/12/25 02:28:10;;;;;;;;;;;4.30;99.90;;;;;;5069950;28;19991;-59
2021/12/25 02:30:36;;;;;;;;;;;4.40;99.90;;;;;;5070974;28;20490;-59
2021/12/25 02:33:01;;;;;;;;;;;4.40;99.90;;;;;;5068791;28;19953;-59
2021/12/25 02:35:27;;;;;;;;;;;4.50;99.90;;;;;;5071469;28;20535;-60
2021/12/25 02:37:53;;;;;;;;;;;4.60;99.90;;;;;;5069449;28;19913;-59
2021/12/25 02:40:19;;;;;;;;;;;4.40;99.90;;;;;;5068105;28;19923;-60
2021/12/25 02:42:44;;;;;;;;;;;4.20;99.90;;;;;;5069118;28;19947;-59
2021/12/25 02:45:17;;;;;;;;;;;4.30;99.90;;;;;;5072856;28;20533;-59
2021/12/25 02:47:50;;;;;;;;;;;4.30;99.90;;;;;;5070685;28;19908;-60
2021/12/25 02:50:29;;;;;;;;;;;4.30;99.90;;;;;;5071580;28;19922;-59
2021/12/25 02:52:55;;;;;;;;;;;4.30;99.90;;;;;;5070653;28;20168;-59
2021/12/25 02:55:21;;;;;;;;;;;4.20;99.90;;;;;;5069270;28;20040;-58
2021/12/25 02:57:50;;;;;;;;;;;4.30;99.90;;;;;;5069998;28;19972;-60
2021/12/25 03:00:26;;;;;;;;;;;4.30;99.90;;;;;;5069536;28;19916;-59
2021/12/25 03:02:52;;;;;;;;;;;4.20;99.90;;;;;;5069038;28;20760;-60
2021/12/25 03:05:17;;;;;;;;;;;4.40;99.90;;;;;;5070696;28;19927;-59
2021/12/25 03:07:44;;;;;;;;;;;4.40;99.90;;;;;;5070970;28;19926;-58
2021/12/25 03:10:11;;;;;;;;;;;4.40;99.90;;;;;;5067863;28;19916;-59
2021/12/25 03:12:48;;;;;;;;;;;4.40;99.90;;;;;;5068365;28;19916;-60
2021/12/25 03:15:17;;;;;;;;;;;4.30;99.90;;;;;;5069157;28;19951;-59
2021/12/25 03:17:43;;;;;;;;;;;4.40;99.90;;;;;;5069751;28;20151;-59
2021/12/25 03:20:10;;;;;;;;;;;4.40;99.90;;;;;;5068463;28;19916;-58
2021/12/25 03:22:37;;;;;;;;;;;4.50;99.90;;;;;;5071639;28;19912;-59
2021/12/25 03:25:05;;;;;;;;;;;4.40;99.90;;;;;;5069795;28;19927;-59
2021/12/25 03:27:30;;;;;;;;;;;4.50;99.90;;;;;;5069775;28;19916;-59
2021/12/25 03:29:56;;;;;;;;;;;4.20;99.90;;;;;;5070180;28;19916;-60
2021/12/25 03:32:21;;;;;;;;;;;4.10;99.90;;;;;;5068320;28;19923;-58
2021/12/25 03:34:47;;;;;;;;;;;4.00;99.90;;;;;;5069698;28;20394;-58
2021/12/25 03:37:12;;;;;;;;;;;4.00;99.90;;;;;;5069793;28;20386;-59
2021/12/25 03:39:38;;;;;;;;;;;4.00;99.90;;;;;;5069243;28;19924;-58
2021/12/25 03:42:03;;;;;;;;;;;3.90;99.90;;;;;;5070320;28;20566;-58
2021/12/25 03:44:31;;;;;;;;;;;3.80;99.90;;;;;;5070390;28;19927;-59
2021/12/25 03:47:03;;;;;;;;;;;3.90;99.90;;;;;;5067958;28;20716;-60
2021/12/25 03:53:06;;;;;;;;;;;4.00;99.90;;;;;;5068905;28;20207;-58
2021/12/25 03:57:50;;;;;;;;;;;4.00;99.90;;;;;;5067546;28;19923;-59
2021/12/25 04:00:19;;;;;;;;;;;4.00;99.90;;;;;;5069867;28;20386;-58
2021/12/25 04:02:55;;;;;;;;;;;4.00;99.90;;;;;;5070596;28;20285;-59
2021/12/25 04:05:26;;;;;;;;;;;4.20;99.90;;;;;;5068893;28;20389;-58
2021/12/25 04:08:02;;;;;;;;;;;3.90;99.90;;;;;;5070100;28;19966;-59
2021/12/25 04:10:28;;;;;;;;;;;3.80;99.90;;;;;;5066721;28;19959;-58
2021/12/25 04:12:54;;;;;;;;;;;3.90;99.90;;;;;;5067919;28;19950;-58
2021/12/25 04:15:20;;;;;;;;;;;3.70;99.90;;;;;;5069548;28;20000;-60
2021/12/25 04:17:45;;;;;;;;;;;3.60;99.90;;;;;;5068193;28;20387;-59
2021/12/25 04:20:11;;;;;;;;;;;3.60;99.90;;;;;;5069028;28;19912;-60
2021/12/25 04:22:45;;;;;;;;;;;3.80;99.90;;;;;;5070134;28;19916;-58
2021/12/25 04:25:11;;;;;;;;;;;3.60;99.90;;;;;;5067318;28;19926;-59
2021/12/25 04:27:38;;;;;;;;;;;3.40;99.90;;;;;;5068957;28;20002;-58
2021/12/25 04:30:18;;;;;;;;;;;3.40;99.90;;;;;;5069883;28;19927;-59
2021/12/25 05:01:44;;;;;;;;;;;3.30;99.90;;;;;;5073001;28;19916;-59
2021/12/25 05:02:13;;;;;;;;;;;3.20;99.90;;;;;;5070427;28;19977;-59
2021/12/25 05:04:44;;;;;;;;;;;3.30;99.90;;;;;;5072815;28;19916;-57
2021/12/25 05:07:12;;;;;;;;;;;3.30;99.90;;;;;;5072975;28;19927;-59
2021/12/25 05:09:37;;;;;;;;;;;3.20;99.90;;;;;;5069641;28;20599;-59
2021/12/25 05:12:03;;;;;;;;;;;3.40;99.90;;;;;;5071749;28;19916;-58
2021/12/25 05:14:29;;;;;;;;;;;3.50;99.90;;;;;;5071061;28;19923;-58
2021/12/25 05:16:54;;;;;;;;;;;3.60;99.90;;;;;;5072015;28;20304;-59
2021/12/25 05:19:20;;;;;;;;;;;3.50;99.90;;;;;;5072042;28;19969;-59
2021/12/25 05:21:45;;;;;;;;;;;3.60;99.90;;;;;;5073018;28;20291;-58
2021/12/25 05:24:11;;;;;;;;;;;3.60;99.90;;;;;;5071616;28;19920;-58
2021/12/25 05:26:36;;;;;;;;;;;3.30;99.90;;;;;;5072924;28;19917;-58
2021/12/25 05:29:02;;;;;;;;;;;3.30;99.90;;;;;;5072569;28;19912;-59
2021/12/25 05:31:29;;;;;;;;;;;3.30;99.90;;;;;;5071059;28;19912;-58
2021/12/25 05:33:56;;;;;;;;;;;3.40;99.90;;;;;;5070393;28;19955;-58
2021/12/25 05:36:21;;;;;;;;;;;3.00;99.90;;;;;;5072416;28;19920;-58
2021/12/25 05:38:47;;;;;;;;;;;3.00;99.90;;;;;;5070755;28;20866;-58
2021/12/25 05:41:13;;;;;;;;;;;2.80;99.90;;;;;;5070276;28;20426;-59
2021/12/25 05:43:39;;;;;;;;;;;2.80;99.90;;;;;;5072368;28;20280;-60
2021/12/25 05:46:04;;;;;;;;;;;2.80;99.90;;;;;;5070931;28;19917;-59
2021/12/25 05:48:35;;;;;;;;;;;2.60;99.90;;;;;;5070635;28;20355;-59
2021/12/25 05:51:04;;;;;;;;;;;2.50;99.90;;;;;;5070582;28;20418;-58
2021/12/25 05:53:30;;;;;;;;;;;2.60;99.90;;;;;;5068009;28;19960;-58
2021/12/25 05:55:55;;;;;;;;;;;2.60;99.90;;;;;;5071669;28;20204;-58
2021/12/25 05:58:21;;;;;;;;;;;2.60;99.90;;;;;;5071026;28;19916;-59
2021/12/25 06:00:46;;;;;;;;;;;2.40;99.90;;;;;;5071507;28;20003;-59
2021/12/25 06:03:12;;;;;;;;;;;2.50;99.90;;;;;;5068790;28;20020;-59
2021/12/25 06:05:37;;;;;;;;;;;2.40;99.90;;;;;;5072977;28;19943;-58
2021/12/25 06:08:03;;;;;;;;;;;2.30;99.90;;;;;;5071095;28;20737;-59
2021/12/25 06:10:28;;;;;;;;;;;2.20;99.90;;;;;;5070416;28;20353;-59
2021/12/25 06:12:55;;;;;;;;;;;2.20;99.90;;;;;;5071650;28;20019;-57
2021/12/25 06:15:22;;;;;;;;;;;2.20;99.90;;;;;;5071153;28;20415;-58
2021/12/25 06:17:48;;;;;;;;;;;2.10;99.90;;;;;;5071151;28;20103;-58
2021/12/25 06:20:13;;;;;;;;;;;2.00;99.90;;;;;;5070813;28;20132;-59
2021/12/25 06:22:39;;;;;;;;;;;1.90;99.90;;;;;;5071517;28;20039;-59
2021/12/25 06:25:05;;;;;;;;;;;2.00;99.90;;;;;;5071409;28;19920;-58
2021/12/25 06:27:31;;;;;;;;;;;2.00;99.90;;;;;;5069701;28;20431;-57
2021/12/25 06:29:56;;;;;;;;;;;1.80;99.90;;;;;;5072556;28;19920;-58
2021/12/25 06:32:22;;;;;;;;;;;1.70;99.90;;;;;;5070492;28;20275;-58
2021/12/25 06:34:47;;;;;;;;;;;1.80;99.90;;;;;;5071767;28;19946;-57
2021/12/25 06:37:13;;;;;;;;;;;1.80;99.90;;;;;;5070471;28;20259;-58
2021/12/25 06:39:40;;;;;;;;;;;1.80;99.90;;;;;;5072717;28;19965;-58
2021/12/25 06:42:07;;;;;;;;;;;1.70;99.90;;;;;;5071020;28;20691;-58
2021/12/25 06:44:32;;;;;;;;;;;1.70;99.90;;;;;;5070774;28;20236;-58
2021/12/25 06:46:58;;;;;;;;;;;1.70;99.90;;;;;;5070192;28;20231;-57
2021/12/25 06:49:24;;;;;;;;;;;1.60;99.90;;;;;;5072255;28;20434;-59
2021/12/25 06:51:50;;;;;;;;;;;1.60;99.90;;;;;;5069519;28;20006;-58
2021/12/25 06:54:16;;;;;;;;;;;1.50;99.90;;;;;;5070652;28;19912;-58
2021/12/25 06:56:44;;;;;;;;;;;1.70;99.90;;;;;;5070951;28;19916;-59
2021/12/25 06:59:10;;;;;;;;;;;1.70;99.90;;;;;;5070974;28;19977;-58
2021/12/25 07:01:36;;;;;;;;;;;1.60;99.90;;;;;;5068915;28;20528;-58
2021/12/25 07:04:02;;;;;;;;;;;1.60;99.90;;;;;;5069316;28;19935;-59
2021/12/25 07:06:28;;;;;;;;;;;1.60;99.90;;;;;;5068305;28;19942;-58
2021/12/25 07:08:53;;;;;;;;;;;1.40;99.90;;;;;;5068745;28;19916;-58
2021/12/25 07:11:19;;;;;;;;;;;1.40;99.90;;;;;;5067756;28;19997;-59
2021/12/25 07:13:46;;;;;;;;;;;1.60;99.90;;;;;;5070693;28;19916;-58
2021/12/25 07:16:11;;;;;;;;;;;1.60;99.90;;;;;;5067951;28;20427;-59
2021/12/25 07:18:37;;;;;;;;;;;1.50;99.90;;;;;;5068821;28;19924;-58
2021/12/25 07:21:03;;;;;;;;;;;1.50;99.90;;;;;;5070611;28;20597;-59
2021/12/25 07:23:29;;;;;;;;;;;1.50;99.90;;;;;;5070904;28;19923;-58
2021/12/25 07:25:54;;;;;;;;;;;1.70;99.90;;;;;;5067770;28;19946;-59
2021/12/25 07:28:20;;;;;;;;;;;1.60;99.90;;;;;;5070608;28;20005;-58
2021/12/25 07:30:45;;;;;;;;;;;1.50;99.90;;;;;;5068367;28;19935;-58
2021/12/25 07:33:11;;;;;;;;;;;1.60;99.90;;;;;;5067769;28;19970;-58
2021/12/25 07:35:36;;;;;;;;;;;1.50;99.90;;;;;;5069820;28;19920;-59
2021/12/25 07:38:02;;;;;;;;;;;1.50;99.90;;;;;;5068904;28;20421;-59
2021/12/25 07:40:28;;;;;;;;;;;1.60;99.90;;;;;;5067891;28;19912;-57
2021/12/25 07:42:54;;;;;;;;;;;1.60;99.90;;;;;;5070041;28;19916;-59
2021/12/25 07:45:20;;;;;;;;;;;1.60;99.90;;;;;;5066680;28;19949;-58
2021/12/25 07:47:50;;;;;;;;;;;1.70;99.90;;;;;;5067830;28;19985;-58
2021/12/25 07:50:16;;;;;;;;;;;1.50;99.90;;;;;;5069744;28;20329;-57
2021/12/25 07:52:41;;;;;;;;;;;1.40;99.90;;;;;;5068121;28;19920;-57
2021/12/25 07:55:08;;;;;;;;;;;1.40;99.90;;;;;;5070283;28;19919;-59
2021/12/25 07:57:34;;;;;;;;;;;1.60;99.90;;;;;;5066850;28;19970;-58
2021/12/25 07:59:59;;;;;;;;;;;1.70;99.90;;;;;;5070699;28;20354;-58
2021/12/25 08:02:25;;;;;;;;;;;1.70;99.90;;;;;;5066032;28;19918;-59
2021/12/25 08:04:51;;;;;;;;;;;1.40;99.90;;;;;;5067179;28;19973;-58
2021/12/25 08:07:16;;;;;;;;;;;1.50;99.90;;;;;;5067189;28;19924;-59
2021/12/25 08:09:43;;;;;;;;;;;1.60;99.90;;;;;;5068716;28;20351;-58
2021/12/25 08:12:09;;;;;;;;;;;1.50;99.90;;;;;;5069224;28;19912;-59
2021/12/25 08:14:34;;;;;;;;;;;1.30;99.90;;;;;;5069996;28;19922;-58
2021/12/25 08:17:01;;;;;;;;;;;1.30;99.90;;;;;;5067124;28;19927;-59
2021/12/25 08:19:26;;;;;;;;;;;1.40;99.90;;;;;;5069019;28;19986;-59
2021/12/25 08:21:52;;;;;;;;;;;1.40;99.90;;;;;;5069400;28;20839;-60
2021/12/25 08:24:18;;;;;;;;;;;1.40;99.90;;;;;;5067663;28;19924;-61
2021/12/25 08:26:44;;;;;;;;;;;1.30;99.90;;;;;;5065643;28;20007;-60
2021/12/25 08:29:10;;;;;;;;;;;1.30;99.90;;;;;;5067994;28;19976;-60
2021/12/25 08:31:35;;;;;;;;;;;1.30;99.90;;;;;;5065452;28;19916;-59
2021/12/25 08:34:02;;;;;;;;;;;1.10;99.90;;;;;;5065801;28;20013;-60
2021/12/25 08:36:27;;;;;;;;;;;1.10;99.90;;;;;;5068070;28;19931;-60
2021/12/25 08:38:53;;;;;;;;;;;1.10;99.90;;;;;;5068551;28;19911;-59
2021/12/25 08:41:20;;;;;;;;;;;1.00;99.90;;;;;;5066145;28;20384;-60
2021/12/25 08:43:48;;;;;;;;;;;1.10;99.90;;;;;;5067742;28;19996;-60
2021/12/25 08:46:41;;;;;;;;;;;1.00;99.90;;;;;;5067894;28;20453;-59
2021/12/25 08:49:03;;;;;;;;;;;1.10;99.90;;;;;;5068865;28;19974;-60
2021/12/25 08:51:28;;;;;;;;;;;1.10;99.90;;;;;;5067799;28;19924;-60
2021/12/25 08:53:54;;;;;;;;;;;1.10;99.90;;;;;;5066054;28;19912;-59
2021/12/25 08:56:19;;;;;;;;;;;1.20;99.90;;;;;;5067178;28;19916;-59
2021/12/25 08:58:45;;;;;;;;;;;1.30;99.90;;;;;;5066040;28;19912;-59
2021/12/25 09:01:11;;;;;;;;;;;1.30;99.90;;;;;;5065871;28;19916;-61
2021/12/25 09:03:37;;;;;;;;;;;1.50;99.90;;;;;;5067941;28;19981;-59
2021/12/25 09:06:02;;;;;;;;;;;1.40;99.90;;;;;;5067913;28;19927;-60
2021/12/25 09:08:29;;;;;;;;;;;1.50;99.90;;;;;;5064678;28;20315;-60
2021/12/25 09:10:55;;;;;;;;;;;1.70;99.90;;;;;;5069306;28;20809;-60
2021/12/25 09:13:20;;;;;;;;;;;1.70;99.90;;;;;;5067029;28;19973;-60
2021/12/25 09:15:46;;;;;;;;;;;1.60;99.90;;;;;;5068923;28;20392;-60
2021/12/25 09:18:11;;;;;;;;;;;1.40;99.90;;;;;;5064868;28;19912;-58
2021/12/25 09:20:37;;;;;;;;;;;1.40;99.90;;;;;;5067687;28;19917;-59
2021/12/25 09:23:03;;;;;;;;;;;1.30;99.90;;;;;;5065627;28;19957;-60
2021/12/25 09:25:28;;;;;;;;;;;1.40;99.90;;;;;;5065944;28;20467;-60
2021/12/25 09:27:54;;;;;;;;;;;1.50;99.90;;;;;;5067838;28;19923;-59
2021/12/25 09:30:21;;;;;;;;;;;1.50;99.90;;;;;;5070278;28;19925;-58
2021/12/25 09:32:47;;;;;;;;;;;1.30;99.90;;;;;;5069707;28;19923;-59
2021/12/25 09:35:12;;;;;;;;;;;1.20;99.90;;;;;;5070765;28;19920;-60
2021/12/25 09:37:38;;;;;;;;;;;1.30;99.90;;;;;;5070610;28;20290;-60
2021/12/25 09:40:05;;;;;;;;;;;1.20;99.90;;;;;;5069401;28;19923;-59
2021/12/25 09:42:31;;;;;;;;;;;1.40;99.90;;;;;;5069534;28;20407;-60
2021/12/25 09:44:56;;;;;;;;;;;1.40;99.90;;;;;;5068351;28;19916;-59
2021/12/25 09:47:22;;;;;;;;;;;1.60;99.90;;;;;;5068985;28;19916;-59
2021/12/25 09:49:47;;;;;;;;;;;1.50;99.90;;;;;;5069073;28;19912;-59
2021/12/25 09:52:13;;;;;;;;;;;1.40;99.90;;;;;;5068402;28;19924;-59
2021/12/25 09:54:39;;;;;;;;;;;1.40;99.90;;;;;;5070650;28;20198;-60
2021/12/25 09:57:04;;;;;;;;;;;1.30;99.90;;;;;;5086302;28;19963;-58
2021/12/25 09:59:30;;;;;;;;;;;1.40;99.90;;;;;;5070583;28;19969;-59
2021/12/25 10:01:56;;;;;;;;;;;1.30;99.90;;;;;;5070887;28;19916;-59
2021/12/25 10:04:41;;;;;;;;;;;1.20;99.90;;;;;;5068629;28;20491;-60
2021/12/25 10:07:13;;;;;;;;;;;1.40;99.90;;;;;;5067669;28;19923;-60
2021/12/25 10:09:38;;;;;;;;;;;1.40;99.90;;;;;;5071006;28;19916;-59
2021/12/25 10:12:09;;;;;;;;;;;1.50;99.90;;;;;;5069863;28;19919;-60
2021/12/25 10:14:38;;;;;;;;;;;1.40;99.90;;;;;;5069501;28;19916;-60
2021/12/25 10:17:18;;;;;;;;;;;1.50;99.90;;;;;;5068281;28;20006;-60
2021/12/25 10:19:59;;;;;;;;;;;1.30;99.90;;;;;;5070092;28;21514;-59
2021/12/25 10:22:25;;;;;;;;;;;1.30;99.90;;;;;;5070980;28;19913;-59
2021/12/25 10:25:05;;;;;;;;;;;1.30;99.90;;;;;;5071874;28;20447;-59
2021/12/25 10:27:31;;;;;;;;;;;1.50;99.90;;;;;;5068640;28;19920;-60
2021/12/25 10:30:03;;;;;;;;;;;1.50;99.90;;;;;;5069197;28;19916;-60
2021/12/25 10:32:29;;;;;;;;;;;1.50;99.90;;;;;;5067377;28;19919;-59
2021/12/25 10:34:54;;;;;;;;;;;1.40;99.90;;;;;;5066447;28;19972;-59
2021/12/25 10:37:21;;;;;;;;;;;1.20;99.90;;;;;;5067890;28;19921;-59
2021/12/25 10:39:47;;;;;;;;;;;1.20;99.90;;;;;;5070797;28;20019;-59
2021/12/25 10:42:18;;;;;;;;;;;1.40;99.90;;;;;;5069012;28;19964;-59
2021/12/25 10:44:48;;;;;;;;;;;1.40;99.90;;;;;;5067886;28;19980;-59
2021/12/25 10:47:14;;;;;;;;;;;1.40;99.90;;;;;;5068453;28;20824;-60
2021/12/25 10:50:02;;;;;;;;;;;1.60;99.90;;;;;;5071033;28;19960;-62
2021/12/25 10:52:30;;;;;;;;;;;1.30;99.90;;;;;;5069543;28;19920;-62
2021/12/25 10:55:04;;;;;;;;;;;1.20;99.90;;;;;;5070939;28;20395;-62
2021/12/25 10:57:38;;;;;;;;;;;1.10;99.90;;;;;;5068308;28;19915;-62
2021/12/25 11:00:13;;;;;;;;;;;1.20;99.90;;;;;;5071155;28;20017;-62
2021/12/25 11:02:41;;;;;;;;;;;1.30;99.90;;;;;;5069927;28;20586;-63
2021/12/25 11:05:15;;;;;;;;;;;1.40;99.90;;;;;;5068247;28;20554;-62
2021/12/25 11:07:41;;;;;;;;;;;1.40;99.90;;;;;;5069355;28;19920;-63
2021/12/25 11:10:07;;;;;;;;;;;1.40;99.90;;;;;;5070685;28;19927;-62
2021/12/25 11:12:34;;;;;;;;;;;1.30;99.90;;;;;;5070355;28;19924;-60
2021/12/25 11:15:14;;;;;;;;;;;1.40;99.90;;;;;;5071091;28;19995;-60
2021/12/25 11:17:41;;;;;;;;;;;1.30;99.90;;;;;;5067095;28;19916;-60
2021/12/25 11:20:08;;;;;;;;;;;1.20;99.90;;;;;;5066827;28;20056;-59
2021/12/25 11:22:50;;;;;;;;;;;1.30;99.90;;;;;;5070346;28;19912;-59
2021/12/25 11:25:16;;;;;;;;;;;1.40;99.90;;;;;;5068164;28;20280;-59
2021/12/25 11:27:42;;;;;;;;;;;1.50;99.90;;;;;;5067773;28;19969;-59
2021/12/25 11:30:07;;;;;;;;;;;1.70;99.90;;;;;;5068598;28;19916;-59
2021/12/25 11:32:33;;;;;;;;;;;1.80;99.90;;;;;;5067780;28;20261;-59
2021/12/25 11:34:59;;;;;;;;;;;1.40;99.90;;;;;;5068895;28;20641;-60
2021/12/25 11:37:25;;;;;;;;;;;1.70;99.90;;;;;;5069997;28;19916;-59
2021/12/25 11:39:53;;;;;;;;;;;1.60;99.90;;;;;;5071565;28;19916;-58
2021/12/25 11:42:19;;;;;;;;;;;1.70;99.90;;;;;;5069292;28;20460;-59
2021/12/25 11:44:49;;;;;;;;;;;1.50;99.90;;;;;;5069555;28;19965;-61
2021/12/25 11:47:37;;;;;;;;;;;1.40;99.90;;;;;;5069216;28;19916;-62
2021/12/25 11:50:07;;;;;;;;;;;1.70;99.90;;;;;;5067856;28;20322;-62
2021/12/25 11:52:43;;;;;;;;;;;1.60;99.90;;;;;;5065343;28;20077;-61
2021/12/25 11:55:24;;;;;;;;;;;1.70;99.90;;;;;;5050899;28;19916;-61
2021/12/25 11:57:58;;;;;;;;;;;1.70;99.90;;;;;;5068398;28;19912;-62
2021/12/25 12:00:34;;;;;;;;;;;1.70;99.90;;;;;;5070836;28;20393;-60
2021/12/25 12:03:00;;;;;;;;;;;1.80;99.90;;;;;;5070354;28;19916;-62
2021/12/25 12:05:27;;;;;;;;;;;1.70;99.90;;;;;;5068718;28;20325;-61
2021/12/25 12:08:04;;;;;;;;;;;1.80;99.90;;;;;;5069389;28;19920;-61
2021/12/25 12:10:45;;;;;;;;;;;1.80;99.90;;;;;;5068999;28;20032;-62
2021/12/25 12:13:21;;;;;;;;;;;1.80;99.90;;;;;;5068099;28;19915;-61
2021/12/25 12:15:51;;;;;;;;;;;1.70;99.90;;;;;;5066993;28;20367;-61
2021/12/25 12:18:31;;;;;;;;;;;1.80;99.90;;;;;;5065193;28;19974;-61
2021/12/25 12:21:06;;;;;;;;;;;1.90;99.90;;;;;;5068343;28;19916;-61
2021/12/25 12:26:42;;;;;;;;;;;1.80;99.90;;;;;;5069225;28;19970;-61
2021/12/25 12:29:07;;;;;;;;;;;1.90;99.90;;;;;;5067964;28;20359;-61
2021/12/25 12:31:33;;;;;;;;;;;1.80;99.90;;;;;;5066357;28;19959;-61
2021/12/25 12:33:59;;;;;;;;;;;1.70;99.90;;;;;;5067905;28;19955;-61
2021/12/25 12:36:27;;;;;;;;;;;1.70;99.90;;;;;;5066005;28;19947;-59
2021/12/25 12:38:59;;;;;;;;;;;1.80;99.90;;;;;;5065770;28;19920;-59
2021/12/25 12:41:26;;;;;;;;;;;1.90;99.90;;;;;;5067802;28;20488;-58
2021/12/25 12:44:03;;;;;;;;;;;1.70;99.90;;;;;;5068049;28;19927;-59
2021/12/25 12:46:47;;;;;;;;;;;1.60;99.90;;;;;;5069053;28;19924;-59
2021/12/25 12:49:12;;;;;;;;;;;1.60;99.90;;;;;;5068989;28;20360;-58
2021/12/25 12:51:38;;;;;;;;;;;1.50;99.90;;;;;;5068462;28;20490;-60
2021/12/25 12:54:04;;;;;;;;;;;1.70;99.90;;;;;;5066187;28;19952;-59
2021/12/25 12:56:29;;;;;;;;;;;1.80;99.90;;;;;;5067999;28;20382;-60
2021/12/25 12:58:56;;;;;;;;;;;1.90;99.90;;;;;;5082402;28;20019;-58
2021/12/25 13:01:22;;;;;;;;;;;1.90;99.90;;;;;;5065222;28;20342;-61
2021/12/25 13:03:53;;;;;;;;;;;1.60;99.90;;;;;;5067588;28;20497;-62
2021/12/25 13:06:19;;;;;;;;;;;1.70;99.90;;;;;;5069935;28;19953;-61
2021/12/25 13:08:47;;;;;;;;;;;1.70;99.90;;;;;;5072113;28;20375;-62
2021/12/25 13:11:18;;;;;;;;;;;1.70;99.90;;;;;;5070808;28;19912;-62
2021/12/25 13:13:57;;;;;;;;;;;1.90;99.90;;;;;;5069696;28;19916;-61
2021/12/25 13:16:26;;;;;;;;;;;1.80;99.90;;;;;;5068745;28;19920;-61
2021/12/25 13:18:53;;;;;;;;;;;1.70;99.90;;;;;;5070911;28;20133;-62
2021/12/25 13:21:22;;;;;;;;;;;1.70;99.90;;;;;;5070711;28;19912;-62
2021/12/25 13:23:51;;;;;;;;;;;1.60;99.90;;;;;;5068033;28;19924;-62
2021/12/25 13:26:20;;;;;;;;;;;1.50;99.90;;;;;;5069359;28;19947;-62
2021/12/25 13:28:47;;;;;;;;;;;1.60;99.90;;;;;;5068821;28;20466;-61
2021/12/25 13:31:14;;;;;;;;;;;1.60;99.90;;;;;;5067672;28;19966;-63
2021/12/25 13:33:47;;;;;;;;;;;1.70;99.90;;;;;;5069307;28;19916;-61
2021/12/25 13:36:13;;;;;;;;;;;1.60;99.90;;;;;;5070564;28;19916;-61
2021/12/25 13:38:50;;;;;;;;;;;1.60;99.90;;;;;;5070703;28;19916;-62
2021/12/25 13:41:36;;;;;;;;;;;1.70;99.90;;;;;;5070741;28;20043;-62
2021/12/25 13:44:04;;;;;;;;;;;1.80;99.90;;;;;;5065605;28;20394;-62
2021/12/25 13:46:42;;;;;;;;;;;1.90;99.90;;;;;;5068737;28;20007;-62
2021/12/25 13:49:24;;;;;;;;;;;2.00;99.90;;;;;;5069675;28;21152;-62
2021/12/25 13:51:50;;;;;;;;;;;1.90;99.90;;;;;;5070755;28;21827;-62
2021/12/25 13:54:19;;;;;;;;;;;1.80;99.90;;;;;;5072163;28;20062;-63
2021/12/25 13:56:49;;;;;;;;;;;1.80;99.90;;;;;;5069058;28;19964;-62
2021/12/25 13:59:15;;;;;;;;;;;1.90;99.90;;;;;;5069808;28;19919;-62
2021/12/25 14:01:40;;;;;;;;;;;1.90;99.90;;;;;;5068837;28;20026;-63
2021/12/25 14:04:10;;;;;;;;;;;1.80;99.90;;;;;;5066151;28;20570;-62
2021/12/25 14:06:36;;;;;;;;;;;1.80;99.90;;;;;;5065603;28;20854;-63
2021/12/25 14:09:02;;;;;;;;;;;1.80;99.90;;;;;;5070317;28;20894;-63
2021/12/25 14:11:28;;;;;;;;;;;1.90;99.90;;;;;;5070734;28;20017;-63
2021/12/25 14:13:54;;;;;;;;;;;1.80;99.90;;;;;;5070717;28;19919;-62
2021/12/25 14:16:20;;;;;;;;;;;1.90;99.90;;;;;;5069553;28;19920;-63
2021/12/25 14:18:45;;;;;;;;;;;1.90;99.90;;;;;;5071799;28;19958;-62
2021/12/25 14:21:12;;;;;;;;;;;1.90;99.90;;;;;;5071876;28;20347;-63
2021/12/25 14:23:38;;;;;;;;;;;1.90;99.90;;;;;;5071010;28;19972;-64
2021/12/25 14:26:03;;;;;;;;;;;1.90;99.90;;;;;;5069137;28;20391;-63
2021/12/25 14:28:30;;;;;;;;;;;1.80;99.90;;;;;;5067475;28;19920;-63
2021/12/25 14:31:12;;;;;;;;;;;1.80;99.90;;;;;;5067986;28;20692;-65
2021/12/25 14:33:52;;;;;;;;;;;1.70;99.90;;;;;;5067080;28;19960;-63
2021/12/25 14:36:17;;;;;;;;;;;1.90;99.90;;;;;;5069503;28;19916;-64
2021/12/25 14:38:44;;;;;;;;;;;1.80;99.90;;;;;;5065575;28;19916;-63
2021/12/25 14:41:10;;;;;;;;;;;1.70;99.90;;;;;;5066590;28;19916;-63
2021/12/25 14:43:36;;;;;;;;;;;1.80;99.90;;;;;;5069760;28;19958;-63
2021/12/25 14:46:03;;;;;;;;;;;1.80;99.90;;;;;;5067522;28;20404;-62
2021/12/25 14:48:33;;;;;;;;;;;1.60;99.90;;;;;;5071969;28;19935;-62
2021/12/25 14:51:01;;;;;;;;;;;1.70;99.90;;;;;;5070079;28;19912;-62
2021/12/25 14:53:27;;;;;;;;;;;1.80;99.90;;;;;;5070092;28;20440;-62
2021/12/25 14:55:55;;;;;;;;;;;1.70;99.90;;;;;;5066506;28;19919;-63
2021/12/25 14:58:28;;;;;;;;;;;1.60;99.90;;;;;;5070423;28;19919;-63
2021/12/25 15:01:05;;;;;;;;;;;1.60;99.90;;;;;;5069986;28;19999;-62
2021/12/25 15:03:31;;;;;;;;;;;1.60;99.90;;;;;;5067345;28;20022;-62
2021/12/25 15:05:56;;;;;;;;;;;1.60;99.90;;;;;;5068094;28;19927;-62
2021/12/25 15:08:29;;;;;;;;;;;1.60;99.90;;;;;;5067891;28;20524;-62
2021/12/25 15:11:02;;;;;;;;;;;1.50;99.90;;;;;;5068229;28;20404;-62
2021/12/25 15:13:28;;;;;;;;;;;1.60;99.90;;;;;;5067362;28;19951;-62
2021/12/25 15:15:55;;;;;;;;;;;1.60;99.90;;;;;;5067191;28;19955;-62
2021/12/25 15:18:25;;;;;;;;;;;1.60;99.90;;;;;;5066928;28;19921;-62
2021/12/25 15:21:09;;;;;;;;;;;1.60;99.90;;;;;;5068335;28;19916;-62
2021/12/25 15:23:35;;;;;;;;;;;1.60;99.90;;;;;;5069044;28;19940;-62
2021/12/25 15:26:09;;;;;;;;;;;1.50;99.90;;;;;;5067473;28;19916;-62
2021/12/25 15:28:36;;;;;;;;;;;1.50;99.90;;;;;;5068686;28;20029;-62
2021/12/25 15:31:12;;;;;;;;;;;1.40;99.90;;;;;;5069077;28;19923;-61
2021/12/25 15:33:45;;;;;;;;;;;1.50;99.90;;;;;;5068840;28;19916;-62
2021/12/25 15:36:14;;;;;;;;;;;1.40;99.90;;;;;;5066695;28;20337;-62
2021/12/25 15:38:39;;;;;;;;;;;1.50;99.90;;;;;;5068412;28;20738;-61
2021/12/25 15:41:08;;;;;;;;;;;1.40;99.90;;;;;;5068071;28;20143;-61
2021/12/25 15:43:33;;;;;;;;;;;1.40;99.90;;;;;;5068462;28;19927;-61